18°C Temp
13°C Dewpoint
73% Humidity
Temperature
13 KM/H
8 MPH
7 KTS
360°
Due North

Wind Speed
Clear
Conditions
Pressure 1009.52 (hPa) - 29.81 (in)
Visibility 8.7 (mi) - 14.0 (km)

Current Conditions
CYZE
Location 50(km)
Metar :CYZE 151900Z AUTO 36007KT 270V030 9SM CLR 18/13 A2981 RMK SLP096 DENSITY ALT 1200FT
Fri 15th October 15:00 pm

Airport
  Metar Aviation API Data Provided by https://www.checkwx.com/ PHP scripts by weather34.com ©2021